sensor_id;sensor_type;location;lat;lon;timestamp;P1;durP1;ratioP1;P2;durP2;ratioP2
22515;SDS011;11424;48.860;9.624;2022-12-07T00:01:03;4.4;;;5.7;;
22515;SDS011;11424;48.860;9.624;2022-12-07T00:05:57;4.8;;;6.1;;
22515;SDS011;11424;48.860;9.624;2022-12-07T00:11:00;5.4;;;6.2;;
22515;SDS011;11424;48.860;9.624;2022-12-07T00:15:59;4.5;;;5.9;;
22515;SDS011;11424;48.860;9.624;2022-12-07T00:20:59;4.3;;;6;;
22515;SDS011;11424;48.860;9.624;2022-12-07T00:26:02;4.8;;;6.3;;
22515;SDS011;11424;48.860;9.624;2022-12-07T00:30:59;5.2;;;6.6;;
22515;SDS011;11424;48.860;9.624;2022-12-07T00:35:57;4.7;;;6.1;;
22515;SDS011;11424;48.860;9.624;2022-12-07T00:40:57;4.9;;;6.7;;
22515;SDS011;11424;48.860;9.624;2022-12-07T00:45:57;5.4;;;7.5;;
22515;SDS011;11424;48.860;9.624;2022-12-07T00:50:57;4.7;;;5.7;;
22515;SDS011;11424;48.860;9.624;2022-12-07T00:55:57;5.3;;;7.2;;
22515;SDS011;11424;48.860;9.624;2022-12-07T01:00:59;5.7;;;7.6;;
22515;SDS011;11424;48.860;9.624;2022-12-07T01:05:57;5.4;;;6.9;;
22515;SDS011;11424;48.860;9.624;2022-12-07T01:10:58;5.4;;;6.8;;
22515;SDS011;11424;48.860;9.624;2022-12-07T01:15:58;4.6;;;6;;
22515;SDS011;11424;48.860;9.624;2022-12-07T01:20:58;4.8;;;7.3;;
22515;SDS011;11424;48.860;9.624;2022-12-07T01:25:57;6.7;;;8.3;;
22515;SDS011;11424;48.860;9.624;2022-12-07T01:30:57;5.9;;;8.1;;
22515;SDS011;11424;48.860;9.624;2022-12-07T01:36:00;4.9;;;6.5;;
22515;SDS011;11424;48.860;9.624;2022-12-07T01:40:57;4.7;;;7;;
22515;SDS011;11424;48.860;9.624;2022-12-07T01:45:57;4.6;;;5.9;;
22515;SDS011;11424;48.860;9.624;2022-12-07T01:50:59;5.5;;;8.3;;
22515;SDS011;11424;48.860;9.624;2022-12-07T01:55:57;4.3;;;5.8;;
22515;SDS011;11424;48.860;9.624;2022-12-07T02:00:57;4.5;;;6.8;;
22515;SDS011;11424;48.860;9.624;2022-12-07T02:05:57;4.3;;;6;;
22515;SDS011;11424;48.860;9.624;2022-12-07T02:10:57;4.3;;;5.9;;
22515;SDS011;11424;48.860;9.624;2022-12-07T02:16:01;4.3;;;5.7;;
22515;SDS011;11424;48.860;9.624;2022-12-07T02:20:58;4.5;;;6.2;;
22515;SDS011;11424;48.860;9.624;2022-12-07T02:26:02;4.6;;;6.6;;
22515;SDS011;11424;48.860;9.624;2022-12-07T02:30:58;4.6;;;6.5;;
22515;SDS011;11424;48.860;9.624;2022-12-07T02:35:59;4.5;;;6.2;;
22515;SDS011;11424;48.860;9.624;2022-12-07T02:40:57;4.7;;;6.3;;
22515;SDS011;11424;48.860;9.624;2022-12-07T02:45:58;4.9;;;7.1;;
22515;SDS011;11424;48.860;9.624;2022-12-07T02:50:57;6.6;;;10.2;;
22515;SDS011;11424;48.860;9.624;2022-12-07T02:55:57;5.8;;;9.3;;
22515;SDS011;11424;48.860;9.624;2022-12-07T03:01:00;5.1;;;7.6;;
22515;SDS011;11424;48.860;9.624;2022-12-07T03:05:59;4.8;;;7;;
22515;SDS011;11424;48.860;9.624;2022-12-07T03:10:58;4.8;;;6.7;;
22515;SDS011;11424;48.860;9.624;2022-12-07T03:15:58;5.2;;;8.2;;
22515;SDS011;11424;48.860;9.624;2022-12-07T03:20:58;5.3;;;7.7;;
22515;SDS011;11424;48.860;9.624;2022-12-07T03:25:58;4.9;;;7.7;;
22515;SDS011;11424;48.860;9.624;2022-12-07T03:30:58;5;;;7.6;;
22515;SDS011;11424;48.860;9.624;2022-12-07T03:35:58;4.9;;;7.7;;
22515;SDS011;11424;48.860;9.624;2022-12-07T03:40:58;5;;;7.5;;
22515;SDS011;11424;48.860;9.624;2022-12-07T03:45:59;4.8;;;8.4;;
22515;SDS011;11424;48.860;9.624;2022-12-07T03:50:59;4.9;;;8;;
22515;SDS011;11424;48.860;9.624;2022-12-07T03:55:57;4.7;;;7.4;;
22515;SDS011;11424;48.860;9.624;2022-12-07T04:00:57;5.1;;;7.8;;
22515;SDS011;11424;48.860;9.624;2022-12-07T04:05:57;4.6;;;6.6;;
22515;SDS011;11424;48.860;9.624;2022-12-07T04:10:57;4.6;;;6.7;;
22515;SDS011;11424;48.860;9.624;2022-12-07T04:15:57;5.1;;;7.4;;
22515;SDS011;11424;48.860;9.624;2022-12-07T04:20:57;4.9;;;7.7;;
22515;SDS011;11424;48.860;9.624;2022-12-07T04:25:57;5.5;;;8.7;;
22515;SDS011;11424;48.860;9.624;2022-12-07T04:30:57;6.7;;;10.7;;
22515;SDS011;11424;48.860;9.624;2022-12-07T04:35:57;7.4;;;11.2;;
22515;SDS011;11424;48.860;9.624;2022-12-07T04:40:57;7.8;;;12.2;;
22515;SDS011;11424;48.860;9.624;2022-12-07T04:45:57;7.3;;;10.8;;
22515;SDS011;11424;48.860;9.624;2022-12-07T04:50:57;7.5;;;12.7;;
22515;SDS011;11424;48.860;9.624;2022-12-07T04:55:57;6.6;;;10.9;;
22515;SDS011;11424;48.860;9.624;2022-12-07T05:00:57;6.1;;;10;;
22515;SDS011;11424;48.860;9.624;2022-12-07T05:05:57;6.3;;;9.2;;
22515;SDS011;11424;48.860;9.624;2022-12-07T05:10:57;5.6;;;8.6;;
22515;SDS011;11424;48.860;9.624;2022-12-07T05:15:58;6.4;;;10.2;;
22515;SDS011;11424;48.860;9.624;2022-12-07T05:20:57;5.7;;;7.7;;
22515;SDS011;11424;48.860;9.624;2022-12-07T05:25:57;5.1;;;7.6;;
22515;SDS011;11424;48.860;9.624;2022-12-07T05:30:57;4.9;;;8;;
22515;SDS011;11424;48.860;9.624;2022-12-07T05:35:57;4.8;;;8;;
22515;SDS011;11424;48.860;9.624;2022-12-07T05:40:59;4.5;;;6.5;;
22515;SDS011;11424;48.860;9.624;2022-12-07T05:45:58;4.8;;;7.8;;
22515;SDS011;11424;48.860;9.624;2022-12-07T05:50:57;4.5;;;6.8;;
22515;SDS011;11424;48.860;9.624;2022-12-07T05:55:57;4.3;;;6;;
22515;SDS011;11424;48.860;9.624;2022-12-07T06:00:57;4.5;;;6.1;;
22515;SDS011;11424;48.860;9.624;2022-12-07T06:05:57;4.7;;;7.4;;
22515;SDS011;11424;48.860;9.624;2022-12-07T06:10:57;4.3;;;6.4;;
22515;SDS011;11424;48.860;9.624;2022-12-07T06:15:57;4.3;;;6.9;;
22515;SDS011;11424;48.860;9.624;2022-12-07T06:20:57;4;;;6.2;;
22515;SDS011;11424;48.860;9.624;2022-12-07T06:25:57;4.4;;;5.6;;
22515;SDS011;11424;48.860;9.624;2022-12-07T06:30:57;4.1;;;5.6;;
22515;SDS011;11424;48.860;9.624;2022-12-07T06:35:57;5.7;;;9.5;;
22515;SDS011;11424;48.860;9.624;2022-12-07T06:40:57;4.4;;;6.6;;
22515;SDS011;11424;48.860;9.624;2022-12-07T06:45:57;4;;;6.7;;
22515;SDS011;11424;48.860;9.624;2022-12-07T06:50:57;4;;;6;;
22515;SDS011;11424;48.860;9.624;2022-12-07T06:55:57;5.9;;;8;;
22515;SDS011;11424;48.860;9.624;2022-12-07T07:00:59;5.3;;;7.8;;
22515;SDS011;11424;48.860;9.624;2022-12-07T07:05:57;5.5;;;7.6;;
22515;SDS011;11424;48.860;9.624;2022-12-07T07:10:57;5.9;;;8.3;;
22515;SDS011;11424;48.860;9.624;2022-12-07T07:15:58;5.9;;;9.4;;
22515;SDS011;11424;48.860;9.624;2022-12-07T07:20:57;5.7;;;9;;
22515;SDS011;11424;48.860;9.624;2022-12-07T07:25:57;4.2;;;6;;
22515;SDS011;11424;48.860;9.624;2022-12-07T07:30:57;4.1;;;5.6;;
22515;SDS011;11424;48.860;9.624;2022-12-07T07:35:57;4.1;;;5.6;;
22515;SDS011;11424;48.860;9.624;2022-12-07T07:40:57;4;;;5.1;;
22515;SDS011;11424;48.860;9.624;2022-12-07T07:45:57;4.1;;;6.3;;
22515;SDS011;11424;48.860;9.624;2022-12-07T07:50:57;4;;;5.8;;
22515;SDS011;11424;48.860;9.624;2022-12-07T07:55:57;4.1;;;6;;
22515;SDS011;11424;48.860;9.624;2022-12-07T08:01:02;4.1;;;5.8;;
22515;SDS011;11424;48.860;9.624;2022-12-07T08:05:57;4.3;;;6.1;;
22515;SDS011;11424;48.860;9.624;2022-12-07T08:10:57;4;;;5.7;;
22515;SDS011;11424;48.860;9.624;2022-12-07T08:15:58;4.1;;;6.3;;
22515;SDS011;11424;48.860;9.624;2022-12-07T08:20:58;4.4;;;6.6;;
22515;SDS011;11424;48.860;9.624;2022-12-07T08:25:59;4.5;;;6.8;;
22515;SDS011;11424;48.860;9.624;2022-12-07T08:30:58;4.1;;;5.8;;
22515;SDS011;11424;48.860;9.624;2022-12-07T08:35:59;4;;;5.6;;
22515;SDS011;11424;48.860;9.624;2022-12-07T08:40:58;3.8;;;5.4;;
22515;SDS011;11424;48.860;9.624;2022-12-07T08:46:01;4.3;;;5.6;;
22515;SDS011;11424;48.860;9.624;2022-12-07T08:50:57;4.1;;;6.5;;
22515;SDS011;11424;48.860;9.624;2022-12-07T08:55:58;3.9;;;5.7;;
22515;SDS011;11424;48.860;9.624;2022-12-07T09:00:58;4.1;;;6.2;;
22515;SDS011;11424;48.860;9.624;2022-12-07T09:05:58;3.8;;;5.4;;
22515;SDS011;11424;48.860;9.624;2022-12-07T09:10:58;3.6;;;4.7;;
22515;SDS011;11424;48.860;9.624;2022-12-07T09:15:58;3.6;;;5.2;;
22515;SDS011;11424;48.860;9.624;2022-12-07T09:20:58;3.5;;;5.3;;
22515;SDS011;11424;48.860;9.624;2022-12-07T09:25:58;3.9;;;5.7;;
22515;SDS011;11424;48.860;9.624;2022-12-07T09:30:58;3.6;;;5.3;;
22515;SDS011;11424;48.860;9.624;2022-12-07T09:35:58;4.3;;;7.3;;
22515;SDS011;11424;48.860;9.624;2022-12-07T09:40:58;4.1;;;6;;
22515;SDS011;11424;48.860;9.624;2022-12-07T09:45:58;3.8;;;4.9;;
22515;SDS011;11424;48.860;9.624;2022-12-07T09:50:58;3.7;;;4.7;;
22515;SDS011;11424;48.860;9.624;2022-12-07T09:55:58;3.5;;;4.8;;
22515;SDS011;11424;48.860;9.624;2022-12-07T10:00:59;3.9;;;5.9;;
22515;SDS011;11424;48.860;9.624;2022-12-07T10:05:58;4.1;;;5.6;;
22515;SDS011;11424;48.860;9.624;2022-12-07T10:10:58;3.8;;;5.5;;
22515;SDS011;11424;48.860;9.624;2022-12-07T10:15:58;3.9;;;6;;
22515;SDS011;11424;48.860;9.624;2022-12-07T10:21:00;3.4;;;4.6;;
22515;SDS011;11424;48.860;9.624;2022-12-07T10:25:58;3.3;;;5;;
22515;SDS011;11424;48.860;9.624;2022-12-07T10:30:58;3.7;;;4.8;;
22515;SDS011;11424;48.860;9.624;2022-12-07T10:35:58;3.3;;;4.4;;
22515;SDS011;11424;48.860;9.624;2022-12-07T10:41:05;3.5;;;4.8;;
22515;SDS011;11424;48.860;9.624;2022-12-07T10:46:05;3.4;;;5;;
22515;SDS011;11424;48.860;9.624;2022-12-07T10:51:00;3;;;4.4;;
22515;SDS011;11424;48.860;9.624;2022-12-07T10:56:03;3.3;;;4.8;;
22515;SDS011;11424;48.860;9.624;2022-12-07T11:00:59;2.9;;;3.9;;
22515;SDS011;11424;48.860;9.624;2022-12-07T11:06:00;2.7;;;3.9;;
22515;SDS011;11424;48.860;9.624;2022-12-07T11:10:59;2.9;;;3.9;;
22515;SDS011;11424;48.860;9.624;2022-12-07T11:16:08;3.5;;;6.3;;
22515;SDS011;11424;48.860;9.624;2022-12-07T11:20:59;3.7;;;5.6;;
22515;SDS011;11424;48.860;9.624;2022-12-07T11:26:00;3.4;;;5.2;;
22515;SDS011;11424;48.860;9.624;2022-12-07T11:31:01;3.1;;;4.5;;
22515;SDS011;11424;48.860;9.624;2022-12-07T11:36:02;2.8;;;4;;
22515;SDS011;11424;48.860;9.624;2022-12-07T11:40:58;2.6;;;3.9;;
22515;SDS011;11424;48.860;9.624;2022-12-07T11:45:59;3;;;4.1;;
22515;SDS011;11424;48.860;9.624;2022-12-07T11:50:59;2.9;;;3.9;;
22515;SDS011;11424;48.860;9.624;2022-12-07T11:56:00;2.7;;;3.7;;
22515;SDS011;11424;48.860;9.624;2022-12-07T12:01:01;2.8;;;4.4;;
22515;SDS011;11424;48.860;9.624;2022-12-07T12:05:58;3.4;;;5;;
22515;SDS011;11424;48.860;9.624;2022-12-07T12:11:00;2.8;;;3.9;;
22515;SDS011;11424;48.860;9.624;2022-12-07T12:16:02;2.7;;;4.1;;
22515;SDS011;11424;48.860;9.624;2022-12-07T12:20:58;2.7;;;3.4;;
22515;SDS011;11424;48.860;9.624;2022-12-07T12:25:58;2.9;;;4;;
22515;SDS011;11424;48.860;9.624;2022-12-07T12:31:06;2.8;;;3.4;;
22515;SDS011;11424;48.860;9.624;2022-12-07T12:36:16;2.7;;;3.7;;
22515;SDS011;11424;48.860;9.624;2022-12-07T12:40:58;2.6;;;3.2;;
22515;SDS011;11424;48.860;9.624;2022-12-07T12:46:33;2.6;;;3.8;;
22515;SDS011;11424;48.860;9.624;2022-12-07T12:51:35;2.8;;;3.6;;
22515;SDS011;11424;48.860;9.624;2022-12-07T12:56:05;2.7;;;3.3;;
22515;SDS011;11424;48.860;9.624;2022-12-07T13:01:32;3.2;;;4.2;;
22515;SDS011;11424;48.860;9.624;2022-12-07T13:06:32;2.8;;;3.4;;
22515;SDS011;11424;48.860;9.624;2022-12-07T13:11:03;3.4;;;4;;
22515;SDS011;11424;48.860;9.624;2022-12-07T13:17:03;3.3;;;4.4;;
22515;SDS011;11424;48.860;9.624;2022-12-07T13:20:58;3.3;;;3.8;;
22515;SDS011;11424;48.860;9.624;2022-12-07T13:26:00;3;;;3.5;;
22515;SDS011;11424;48.860;9.624;2022-12-07T13:31:01;3.5;;;4.1;;
22515;SDS011;11424;48.860;9.624;2022-12-07T13:35:58;3.4;;;4.3;;
22515;SDS011;11424;48.860;9.624;2022-12-07T13:41:00;4.5;;;5.9;;
22515;SDS011;11424;48.860;9.624;2022-12-07T13:45:58;3.6;;;4.3;;
22515;SDS011;11424;48.860;9.624;2022-12-07T13:50:58;3.4;;;4.3;;
22515;SDS011;11424;48.860;9.624;2022-12-07T13:55:58;3.7;;;5.3;;
22515;SDS011;11424;48.860;9.624;2022-12-07T14:00:58;3.1;;;4.2;;
22515;SDS011;11424;48.860;9.624;2022-12-07T14:06:15;3.8;;;4.7;;
22515;SDS011;11424;48.860;9.624;2022-12-07T14:10:58;4.3;;;6.7;;
22515;SDS011;11424;48.860;9.624;2022-12-07T14:15:58;3.9;;;5;;
22515;SDS011;11424;48.860;9.624;2022-12-07T14:21:05;4.3;;;5.3;;
22515;SDS011;11424;48.860;9.624;2022-12-07T14:26:04;3.6;;;4.5;;
22515;SDS011;11424;48.860;9.624;2022-12-07T14:30:58;4.1;;;6;;
22515;SDS011;11424;48.860;9.624;2022-12-07T14:35:58;3.9;;;5.4;;
22515;SDS011;11424;48.860;9.624;2022-12-07T14:40:58;3.8;;;5.1;;
22515;SDS011;11424;48.860;9.624;2022-12-07T14:45:58;4.2;;;5.8;;
22515;SDS011;11424;48.860;9.624;2022-12-07T14:50:58;3.5;;;4.7;;
22515;SDS011;11424;48.860;9.624;2022-12-07T14:55:58;3.9;;;5.4;;
22515;SDS011;11424;48.860;9.624;2022-12-07T15:00:58;3.7;;;4.6;;
22515;SDS011;11424;48.860;9.624;2022-12-07T15:05:58;3.5;;;5.2;;
22515;SDS011;11424;48.860;9.624;2022-12-07T15:10:58;3.6;;;5.7;;
22515;SDS011;11424;48.860;9.624;2022-12-07T15:15:58;4;;;5.6;;
22515;SDS011;11424;48.860;9.624;2022-12-07T15:20:58;6.3;;;10.3;;
22515;SDS011;11424;48.860;9.624;2022-12-07T15:25:58;5.4;;;8.9;;
22515;SDS011;11424;48.860;9.624;2022-12-07T15:30:58;4;;;5.7;;
22515;SDS011;11424;48.860;9.624;2022-12-07T15:35:58;3.7;;;5.9;;
22515;SDS011;11424;48.860;9.624;2022-12-07T15:40:58;6.8;;;10.8;;
22515;SDS011;11424;48.860;9.624;2022-12-07T15:45:58;4.4;;;6.3;;
22515;SDS011;11424;48.860;9.624;2022-12-07T15:51:01;4.5;;;7;;
22515;SDS011;11424;48.860;9.624;2022-12-07T15:55:58;4.2;;;5.6;;
22515;SDS011;11424;48.860;9.624;2022-12-07T16:00:58;4.1;;;5.3;;
22515;SDS011;11424;48.860;9.624;2022-12-07T16:05:58;4.3;;;6.6;;
22515;SDS011;11424;48.860;9.624;2022-12-07T16:10:58;3.6;;;4.7;;
22515;SDS011;11424;48.860;9.624;2022-12-07T16:15:58;4.1;;;5.8;;
22515;SDS011;11424;48.860;9.624;2022-12-07T16:20:58;4.6;;;5.9;;
22515;SDS011;11424;48.860;9.624;2022-12-07T16:26:03;5.1;;;7.4;;
22515;SDS011;11424;48.860;9.624;2022-12-07T16:30:59;4.9;;;7.4;;
22515;SDS011;11424;48.860;9.624;2022-12-07T16:35:58;5.2;;;6.8;;
22515;SDS011;11424;48.860;9.624;2022-12-07T16:40:58;5.1;;;7.7;;
22515;SDS011;11424;48.860;9.624;2022-12-07T16:45:58;5.2;;;7.5;;
22515;SDS011;11424;48.860;9.624;2022-12-07T16:50:58;4.6;;;6.7;;
22515;SDS011;11424;48.860;9.624;2022-12-07T16:55:58;6.8;;;13;;
22515;SDS011;11424;48.860;9.624;2022-12-07T17:00:58;5.6;;;8.9;;
22515;SDS011;11424;48.860;9.624;2022-12-07T17:05:58;5.6;;;9.1;;
22515;SDS011;11424;48.860;9.624;2022-12-07T17:10:58;5.2;;;8.5;;
22515;SDS011;11424;48.860;9.624;2022-12-07T17:15:59;5.1;;;8.8;;
22515;SDS011;11424;48.860;9.624;2022-12-07T17:21:01;4.6;;;6.9;;
22515;SDS011;11424;48.860;9.624;2022-12-07T17:26:03;4.9;;;7.3;;
22515;SDS011;11424;48.860;9.624;2022-12-07T17:30:58;4.9;;;7.2;;
22515;SDS011;11424;48.860;9.624;2022-12-07T17:35:58;5.1;;;8.2;;
22515;SDS011;11424;48.860;9.624;2022-12-07T17:40:58;5.2;;;8;;
22515;SDS011;11424;48.860;9.624;2022-12-07T17:45:58;5.4;;;8.3;;
22515;SDS011;11424;48.860;9.624;2022-12-07T17:50:58;5.4;;;8.6;;
22515;SDS011;11424;48.860;9.624;2022-12-07T17:55:58;5.3;;;8.6;;
22515;SDS011;11424;48.860;9.624;2022-12-07T18:00:58;5.5;;;8.8;;
22515;SDS011;11424;48.860;9.624;2022-12-07T18:05:59;4.9;;;7.8;;
22515;SDS011;11424;48.860;9.624;2022-12-07T18:10:58;4.6;;;6.8;;
22515;SDS011;11424;48.860;9.624;2022-12-07T18:15:58;5.1;;;7.3;;
22515;SDS011;11424;48.860;9.624;2022-12-07T18:21:01;5.4;;;8;;
22515;SDS011;11424;48.860;9.624;2022-12-07T18:25:58;4.7;;;6.8;;
22515;SDS011;11424;48.860;9.624;2022-12-07T18:30:58;4.6;;;6.1;;
22515;SDS011;11424;48.860;9.624;2022-12-07T18:35:58;4.9;;;6.7;;
22515;SDS011;11424;48.860;9.624;2022-12-07T18:40:58;4.8;;;7.6;;
22515;SDS011;11424;48.860;9.624;2022-12-07T18:45:58;4.9;;;7.5;;
22515;SDS011;11424;48.860;9.624;2022-12-07T18:50:58;4.8;;;7.8;;
22515;SDS011;11424;48.860;9.624;2022-12-07T18:56:00;4.8;;;7.3;;
22515;SDS011;11424;48.860;9.624;2022-12-07T19:00:58;5.5;;;9.7;;
22515;SDS011;11424;48.860;9.624;2022-12-07T19:05:58;5.7;;;8.2;;
22515;SDS011;11424;48.860;9.624;2022-12-07T19:10:58;5.5;;;8.4;;
22515;SDS011;11424;48.860;9.624;2022-12-07T19:15:58;5.8;;;8.4;;
22515;SDS011;11424;48.860;9.624;2022-12-07T19:21:01;5.9;;;9.1;;
22515;SDS011;11424;48.860;9.624;2022-12-07T19:25:58;5.2;;;7.9;;
22515;SDS011;11424;48.860;9.624;2022-12-07T19:30:58;5.8;;;7.8;;
22515;SDS011;11424;48.860;9.624;2022-12-07T19:35:58;5.3;;;8.1;;
22515;SDS011;11424;48.860;9.624;2022-12-07T19:41:02;5.5;;;7.8;;
22515;SDS011;11424;48.860;9.624;2022-12-07T19:46:02;5.4;;;8.4;;
22515;SDS011;11424;48.860;9.624;2022-12-07T19:51:00;5.3;;;7.6;;
22515;SDS011;11424;48.860;9.624;2022-12-07T19:55:58;5.1;;;8;;
22515;SDS011;11424;48.860;9.624;2022-12-07T20:01:01;5.5;;;9.1;;
22515;SDS011;11424;48.860;9.624;2022-12-07T20:05:58;5.9;;;8.9;;
22515;SDS011;11424;48.860;9.624;2022-12-07T20:10:58;5.7;;;8.2;;
22515;SDS011;11424;48.860;9.624;2022-12-07T20:16:01;5.9;;;9;;
22515;SDS011;11424;48.860;9.624;2022-12-07T20:20:58;6.3;;;9.2;;
22515;SDS011;11424;48.860;9.624;2022-12-07T20:26:00;6.8;;;9.7;;
22515;SDS011;11424;48.860;9.624;2022-12-07T20:30:58;6.9;;;11.7;;
22515;SDS011;11424;48.860;9.624;2022-12-07T20:35:58;6.6;;;9.9;;
22515;SDS011;11424;48.860;9.624;2022-12-07T20:40:59;7.5;;;10.7;;
22515;SDS011;11424;48.860;9.624;2022-12-07T20:45:58;7.6;;;11.8;;
22515;SDS011;11424;48.860;9.624;2022-12-07T20:51:03;8.4;;;11.8;;
22515;SDS011;11424;48.860;9.624;2022-12-07T20:55:58;8.7;;;13.9;;
22515;SDS011;11424;48.860;9.624;2022-12-07T21:00:58;7.5;;;12.3;;
22515;SDS011;11424;48.860;9.624;2022-12-07T21:06:00;8.1;;;11.8;;
22515;SDS011;11424;48.860;9.624;2022-12-07T21:10:58;8;;;11.7;;
22515;SDS011;11424;48.860;9.624;2022-12-07T21:15:58;9;;;12.8;;
22515;SDS011;11424;48.860;9.624;2022-12-07T21:20:59;8;;;12.1;;
22515;SDS011;11424;48.860;9.624;2022-12-07T21:25:58;8;;;12.7;;
22515;SDS011;11424;48.860;9.624;2022-12-07T21:30:58;7.3;;;11.4;;
22515;SDS011;11424;48.860;9.624;2022-12-07T21:35:58;7;;;10.4;;
22515;SDS011;11424;48.860;9.624;2022-12-07T21:40:58;6.1;;;9.7;;
22515;SDS011;11424;48.860;9.624;2022-12-07T21:45:58;6.4;;;10.5;;
22515;SDS011;11424;48.860;9.624;2022-12-07T21:51:02;6.3;;;9.2;;
22515;SDS011;11424;48.860;9.624;2022-12-07T21:55:58;6.7;;;11.5;;
22515;SDS011;11424;48.860;9.624;2022-12-07T22:00:58;6.4;;;10.8;;
22515;SDS011;11424;48.860;9.624;2022-12-07T22:05:58;6.8;;;10.1;;
22515;SDS011;11424;48.860;9.624;2022-12-07T22:10:59;6.3;;;10.1;;
22515;SDS011;11424;48.860;9.624;2022-12-07T22:15:58;6.5;;;10.9;;
22515;SDS011;11424;48.860;9.624;2022-12-07T22:20:58;6.6;;;10.6;;
22515;SDS011;11424;48.860;9.624;2022-12-07T22:25:58;7;;;11.7;;
22515;SDS011;11424;48.860;9.624;2022-12-07T22:31:01;5.9;;;9;;
22515;SDS011;11424;48.860;9.624;2022-12-07T22:35:59;6.2;;;9.6;;
22515;SDS011;11424;48.860;9.624;2022-12-07T22:40:58;5.7;;;8.9;;
22515;SDS011;11424;48.860;9.624;2022-12-07T22:45:59;5.6;;;9;;
22515;SDS011;11424;48.860;9.624;2022-12-07T22:50:58;5.7;;;9.5;;
22515;SDS011;11424;48.860;9.624;2022-12-07T22:55:58;5.9;;;9;;
22515;SDS011;11424;48.860;9.624;2022-12-07T23:00:58;5.7;;;8.2;;
22515;SDS011;11424;48.860;9.624;2022-12-07T23:05:58;5.1;;;7.6;;
22515;SDS011;11424;48.860;9.624;2022-12-07T23:10:58;5.2;;;7.6;;
22515;SDS011;11424;48.860;9.624;2022-12-07T23:15:59;5.8;;;8.7;;
22515;SDS011;11424;48.860;9.624;2022-12-07T23:20:58;7.1;;;11.2;;
22515;SDS011;11424;48.860;9.624;2022-12-07T23:26:00;5.8;;;9;;
22515;SDS011;11424;48.860;9.624;2022-12-07T23:31:00;5.3;;;7.9;;
22515;SDS011;11424;48.860;9.624;2022-12-07T23:36:05;4.8;;;7.1;;
22515;SDS011;11424;48.860;9.624;2022-12-07T23:40:58;4.4;;;7.3;;
22515;SDS011;11424;48.860;9.624;2022-12-07T23:45:58;4;;;6.2;;
22515;SDS011;11424;48.860;9.624;2022-12-07T23:50:58;4.2;;;5.9;;
22515;SDS011;11424;48.860;9.624;2022-12-07T23:55:58;4.5;;;7.3;;
